sensor_id;sensor_type;location;lat;lon;timestamp;temperature;humidity
37446;DHT22;23307;51.136;14.942;2024-03-08T00:00:23;1.40;99.90
37446;DHT22;23307;51.136;14.942;2024-03-08T00:02:48;1.30;99.90
37446;DHT22;23307;51.136;14.942;2024-03-08T00:05:16;1.30;99.90
37446;DHT22;23307;51.136;14.942;2024-03-08T00:07:42;1.30;99.90
37446;DHT22;23307;51.136;14.942;2024-03-08T00:10:10;1.40;99.90
37446;DHT22;23307;51.136;14.942;2024-03-08T00:12:36;1.40;99.90
37446;DHT22;23307;51.136;14.942;2024-03-08T00:15:02;1.40;99.90
37446;DHT22;23307;51.136;14.942;2024-03-08T00:17:28;1.40;99.90
37446;DHT22;23307;51.136;14.942;2024-03-08T00:19:54;1.40;99.90
37446;DHT22;23307;51.136;14.942;2024-03-08T00:22:19;1.40;99.90
37446;DHT22;23307;51.136;14.942;2024-03-08T00:24:45;1.50;99.90
37446;DHT22;23307;51.136;14.942;2024-03-08T00:27:11;1.50;99.90
37446;DHT22;23307;51.136;14.942;2024-03-08T00:29:37;1.50;99.90
37446;DHT22;23307;51.136;14.942;2024-03-08T00:32:04;1.50;99.90
37446;DHT22;23307;51.136;14.942;2024-03-08T00:34:30;1.50;99.90
37446;DHT22;23307;51.136;14.942;2024-03-08T00:36:55;1.50;99.90
37446;DHT22;23307;51.136;14.942;2024-03-08T00:39:21;1.50;99.90
37446;DHT22;23307;51.136;14.942;2024-03-08T00:41:47;1.50;99.90
37446;DHT22;23307;51.136;14.942;2024-03-08T00:44:13;1.50;99.90
37446;DHT22;23307;51.136;14.942;2024-03-08T00:46:38;1.40;99.90
37446;DHT22;23307;51.136;14.942;2024-03-08T00:49:04;1.40;99.90
37446;DHT22;23307;51.136;14.942;2024-03-08T00:51:29;1.50;99.90
37446;DHT22;23307;51.136;14.942;2024-03-08T00:53:55;1.40;99.90
37446;DHT22;23307;51.136;14.942;2024-03-08T00:56:20;1.40;99.90
37446;DHT22;23307;51.136;14.942;2024-03-08T00:58:46;1.40;99.90
37446;DHT22;23307;51.136;14.942;2024-03-08T01:01:13;1.40;99.90
37446;DHT22;23307;51.136;14.942;2024-03-08T01:03:42;1.40;99.90
37446;DHT22;23307;51.136;14.942;2024-03-08T01:06:08;1.30;99.90
37446;DHT22;23307;51.136;14.942;2024-03-08T01:08:34;1.30;99.90
37446;DHT22;23307;51.136;14.942;2024-03-08T01:10:59;1.30;99.90
37446;DHT22;23307;51.136;14.942;2024-03-08T01:13:25;1.30;99.90
37446;DHT22;23307;51.136;14.942;2024-03-08T01:15:51;1.30;99.90
37446;DHT22;23307;51.136;14.942;2024-03-08T01:22:04;1.30;99.90
37446;DHT22;23307;51.136;14.942;2024-03-08T01:24:30;1.30;99.90
37446;DHT22;23307;51.136;14.942;2024-03-08T01:26:55;1.30;99.90
37446;DHT22;23307;51.136;14.942;2024-03-08T01:29:21;1.30;99.90
37446;DHT22;23307;51.136;14.942;2024-03-08T01:31:46;1.30;99.90
37446;DHT22;23307;51.136;14.942;2024-03-08T01:34:12;1.30;99.90
37446;DHT22;23307;51.136;14.942;2024-03-08T01:36:37;1.30;99.90
37446;DHT22;23307;51.136;14.942;2024-03-08T01:39:03;1.30;99.90
37446;DHT22;23307;51.136;14.942;2024-03-08T01:41:33;1.30;99.90
37446;DHT22;23307;51.136;14.942;2024-03-08T01:43:59;1.30;99.90
37446;DHT22;23307;51.136;14.942;2024-03-08T01:46:24;1.20;99.90
37446;DHT22;23307;51.136;14.942;2024-03-08T01:48:53;1.20;99.90
37446;DHT22;23307;51.136;14.942;2024-03-08T01:51:20;1.20;99.90
37446;DHT22;23307;51.136;14.942;2024-03-08T01:53:46;1.20;99.90
37446;DHT22;23307;51.136;14.942;2024-03-08T01:56:13;1.20;99.90
37446;DHT22;23307;51.136;14.942;2024-03-08T01:58:41;1.20;99.90
37446;DHT22;23307;51.136;14.942;2024-03-08T02:01:08;1.20;99.90
37446;DHT22;23307;51.136;14.942;2024-03-08T02:03:36;1.20;99.90
37446;DHT22;23307;51.136;14.942;2024-03-08T02:06:01;1.10;99.90
37446;DHT22;23307;51.136;14.942;2024-03-08T02:08:27;1.10;99.90
37446;DHT22;23307;51.136;14.942;2024-03-08T02:10:52;1.10;99.90
37446;DHT22;23307;51.136;14.942;2024-03-08T02:13:18;1.10;99.90
37446;DHT22;23307;51.136;14.942;2024-03-08T02:15:54;1.10;99.90
37446;DHT22;23307;51.136;14.942;2024-03-08T02:18:23;1.10;99.90
37446;DHT22;23307;51.136;14.942;2024-03-08T02:20:53;1.10;99.90
37446;DHT22;23307;51.136;14.942;2024-03-08T02:23:19;1.10;99.90
37446;DHT22;23307;51.136;14.942;2024-03-08T02:25:46;1.10;99.90
37446;DHT22;23307;51.136;14.942;2024-03-08T02:28:12;1.00;99.90
37446;DHT22;23307;51.136;14.942;2024-03-08T02:30:38;1.00;99.90
37446;DHT22;23307;51.136;14.942;2024-03-08T02:33:05;1.00;99.90
37446;DHT22;23307;51.136;14.942;2024-03-08T02:35:31;1.00;99.90
37446;DHT22;23307;51.136;14.942;2024-03-08T02:37:56;1.00;99.90
37446;DHT22;23307;51.136;14.942;2024-03-08T02:40:22;1.00;99.90
37446;DHT22;23307;51.136;14.942;2024-03-08T02:42:47;1.00;99.90
37446;DHT22;23307;51.136;14.942;2024-03-08T02:45:13;1.00;99.90
37446;DHT22;23307;51.136;14.942;2024-03-08T02:47:39;1.00;99.90
37446;DHT22;23307;51.136;14.942;2024-03-08T02:50:05;1.00;99.90
37446;DHT22;23307;51.136;14.942;2024-03-08T02:52:33;1.00;99.90
37446;DHT22;23307;51.136;14.942;2024-03-08T02:54:59;1.00;99.90
37446;DHT22;23307;51.136;14.942;2024-03-08T02:57:24;1.00;99.90
37446;DHT22;23307;51.136;14.942;2024-03-08T02:59:50;1.00;99.90
37446;DHT22;23307;51.136;14.942;2024-03-08T03:02:15;1.00;99.90
37446;DHT22;23307;51.136;14.942;2024-03-08T03:04:41;1.00;99.90
37446;DHT22;23307;51.136;14.942;2024-03-08T03:07:07;1.00;99.90
37446;DHT22;23307;51.136;14.942;2024-03-08T03:09:33;1.00;99.90
37446;DHT22;23307;51.136;14.942;2024-03-08T03:11:59;0.90;99.90
37446;DHT22;23307;51.136;14.942;2024-03-08T03:14:24;1.00;99.90
37446;DHT22;23307;51.136;14.942;2024-03-08T03:16:52;1.00;99.90
37446;DHT22;23307;51.136;14.942;2024-03-08T03:19:17;1.00;99.90
37446;DHT22;23307;51.136;14.942;2024-03-08T03:21:43;1.00;99.90
37446;DHT22;23307;51.136;14.942;2024-03-08T03:24:09;1.00;99.90
37446;DHT22;23307;51.136;14.942;2024-03-08T03:26:38;0.90;99.90
37446;DHT22;23307;51.136;14.942;2024-03-08T03:29:07;1.00;99.90
37446;DHT22;23307;51.136;14.942;2024-03-08T03:31:34;0.90;99.90
37446;DHT22;23307;51.136;14.942;2024-03-08T03:34:00;0.90;99.90
37446;DHT22;23307;51.136;14.942;2024-03-08T03:36:32;0.90;99.90
37446;DHT22;23307;51.136;14.942;2024-03-08T03:38:58;0.90;99.90
37446;DHT22;23307;51.136;14.942;2024-03-08T03:41:36;0.90;99.90
37446;DHT22;23307;51.136;14.942;2024-03-08T03:44:01;0.90;99.90
37446;DHT22;23307;51.136;14.942;2024-03-08T03:46:27;0.90;99.90
37446;DHT22;23307;51.136;14.942;2024-03-08T03:48:56;0.90;99.90
37446;DHT22;23307;51.136;14.942;2024-03-08T03:51:21;0.90;99.90
37446;DHT22;23307;51.136;14.942;2024-03-08T03:53:47;0.90;99.90
37446;DHT22;23307;51.136;14.942;2024-03-08T03:56:12;0.90;99.90
37446;DHT22;23307;51.136;14.942;2024-03-08T03:58:38;1.00;99.90
37446;DHT22;23307;51.136;14.942;2024-03-08T04:01:05;1.00;99.90
37446;DHT22;23307;51.136;14.942;2024-03-08T04:03:30;1.00;99.90
37446;DHT22;23307;51.136;14.942;2024-03-08T04:05:56;0.90;99.90
37446;DHT22;23307;51.136;14.942;2024-03-08T04:08:22;1.00;99.90
37446;DHT22;23307;51.136;14.942;2024-03-08T04:10:49;0.90;99.90
37446;DHT22;23307;51.136;14.942;2024-03-08T04:13:14;0.90;99.90
37446;DHT22;23307;51.136;14.942;2024-03-08T04:15:41;0.90;99.90
37446;DHT22;23307;51.136;14.942;2024-03-08T04:18:08;0.90;99.90
37446;DHT22;23307;51.136;14.942;2024-03-08T04:20:33;0.80;99.90
37446;DHT22;23307;51.136;14.942;2024-03-08T04:22:59;0.80;99.90
37446;DHT22;23307;51.136;14.942;2024-03-08T04:25:24;0.80;99.90
37446;DHT22;23307;51.136;14.942;2024-03-08T04:27:50;0.80;99.90
37446;DHT22;23307;51.136;14.942;2024-03-08T04:30:17;0.80;99.90
37446;DHT22;23307;51.136;14.942;2024-03-08T04:32:43;0.70;99.90
37446;DHT22;23307;51.136;14.942;2024-03-08T04:35:09;0.70;99.90
37446;DHT22;23307;51.136;14.942;2024-03-08T04:37:34;0.70;99.90
37446;DHT22;23307;51.136;14.942;2024-03-08T04:40:00;0.70;99.90
37446;DHT22;23307;51.136;14.942;2024-03-08T04:42:26;0.70;99.90
37446;DHT22;23307;51.136;14.942;2024-03-08T04:44:54;0.60;99.90
37446;DHT22;23307;51.136;14.942;2024-03-08T04:47:19;0.60;99.90
37446;DHT22;23307;51.136;14.942;2024-03-08T04:49:45;0.60;99.90
37446;DHT22;23307;51.136;14.942;2024-03-08T04:52:12;0.60;99.90
37446;DHT22;23307;51.136;14.942;2024-03-08T04:54:37;0.60;99.90
37446;DHT22;23307;51.136;14.942;2024-03-08T04:57:03;0.60;99.90
37446;DHT22;23307;51.136;14.942;2024-03-08T04:59:30;0.60;99.90
37446;DHT22;23307;51.136;14.942;2024-03-08T05:01:55;0.50;99.90
37446;DHT22;23307;51.136;14.942;2024-03-08T05:04:21;0.50;99.90
37446;DHT22;23307;51.136;14.942;2024-03-08T05:06:47;0.50;99.90
37446;DHT22;23307;51.136;14.942;2024-03-08T05:09:13;0.50;99.90
37446;DHT22;23307;51.136;14.942;2024-03-08T05:11:43;0.60;99.90
37446;DHT22;23307;51.136;14.942;2024-03-08T05:14:10;0.50;99.90
37446;DHT22;23307;51.136;14.942;2024-03-08T05:16:35;0.50;99.90
37446;DHT22;23307;51.136;14.942;2024-03-08T05:19:02;0.60;99.90
37446;DHT22;23307;51.136;14.942;2024-03-08T05:21:27;0.50;99.90
37446;DHT22;23307;51.136;14.942;2024-03-08T05:23:54;0.50;99.90
37446;DHT22;23307;51.136;14.942;2024-03-08T05:26:20;0.50;99.90
37446;DHT22;23307;51.136;14.942;2024-03-08T05:28:45;0.50;99.90
37446;DHT22;23307;51.136;14.942;2024-03-08T05:31:21;0.50;99.90
37446;DHT22;23307;51.136;14.942;2024-03-08T05:33:49;0.50;99.90
37446;DHT22;23307;51.136;14.942;2024-03-08T05:36:15;0.50;99.90
37446;DHT22;23307;51.136;14.942;2024-03-08T05:38:43;0.50;99.90
37446;DHT22;23307;51.136;14.942;2024-03-08T05:41:09;0.60;99.90
37446;DHT22;23307;51.136;14.942;2024-03-08T05:43:34;0.60;99.90
37446;DHT22;23307;51.136;14.942;2024-03-08T05:46:00;0.60;99.90
37446;DHT22;23307;51.136;14.942;2024-03-08T05:48:25;0.60;99.90
37446;DHT22;23307;51.136;14.942;2024-03-08T05:50:51;0.60;99.90
37446;DHT22;23307;51.136;14.942;2024-03-08T05:53:16;0.60;99.90
37446;DHT22;23307;51.136;14.942;2024-03-08T05:55:42;0.60;99.90
37446;DHT22;23307;51.136;14.942;2024-03-08T05:58:07;0.70;99.90
37446;DHT22;23307;51.136;14.942;2024-03-08T06:00:33;0.70;99.90
37446;DHT22;23307;51.136;14.942;2024-03-08T06:02:59;0.70;99.90
37446;DHT22;23307;51.136;14.942;2024-03-08T06:05:25;0.70;99.90
37446;DHT22;23307;51.136;14.942;2024-03-08T06:07:50;0.60;99.90
37446;DHT22;23307;51.136;14.942;2024-03-08T06:10:18;0.70;99.90
37446;DHT22;23307;51.136;14.942;2024-03-08T06:12:44;0.70;99.90
37446;DHT22;23307;51.136;14.942;2024-03-08T06:15:10;0.70;99.90
37446;DHT22;23307;51.136;14.942;2024-03-08T06:17:42;0.80;99.90
37446;DHT22;23307;51.136;14.942;2024-03-08T06:20:08;0.80;99.90
37446;DHT22;23307;51.136;14.942;2024-03-08T06:22:41;0.90;99.90
37446;DHT22;23307;51.136;14.942;2024-03-08T06:25:13;0.90;99.90
37446;DHT22;23307;51.136;14.942;2024-03-08T06:27:42;1.00;99.90
37446;DHT22;23307;51.136;14.942;2024-03-08T06:30:08;1.00;99.90
37446;DHT22;23307;51.136;14.942;2024-03-08T06:32:37;1.10;99.90
37446;DHT22;23307;51.136;14.942;2024-03-08T06:35:04;1.10;99.90
37446;DHT22;23307;51.136;14.942;2024-03-08T06:37:33;1.10;99.90
37446;DHT22;23307;51.136;14.942;2024-03-08T06:39:59;1.10;99.90
37446;DHT22;23307;51.136;14.942;2024-03-08T06:42:28;1.20;99.90
37446;DHT22;23307;51.136;14.942;2024-03-08T06:44:54;1.20;99.90
37446;DHT22;23307;51.136;14.942;2024-03-08T06:47:25;1.30;99.90
37446;DHT22;23307;51.136;14.942;2024-03-08T06:49:51;1.30;99.90
37446;DHT22;23307;51.136;14.942;2024-03-08T06:52:17;1.30;99.90
37446;DHT22;23307;51.136;14.942;2024-03-08T06:54:43;1.40;99.90
37446;DHT22;23307;51.136;14.942;2024-03-08T06:57:08;1.50;99.90
37446;DHT22;23307;51.136;14.942;2024-03-08T06:59:35;1.50;99.90
37446;DHT22;23307;51.136;14.942;2024-03-08T07:02:02;1.60;99.90
37446;DHT22;23307;51.136;14.942;2024-03-08T07:04:27;1.60;99.90
37446;DHT22;23307;51.136;14.942;2024-03-08T07:06:55;1.70;99.90
37446;DHT22;23307;51.136;14.942;2024-03-08T07:09:21;1.80;99.90
37446;DHT22;23307;51.136;14.942;2024-03-08T07:11:47;1.80;99.90
37446;DHT22;23307;51.136;14.942;2024-03-08T07:14:12;1.90;99.90
37446;DHT22;23307;51.136;14.942;2024-03-08T07:16:40;1.90;99.90
37446;DHT22;23307;51.136;14.942;2024-03-08T07:19:06;2.00;99.90
37446;DHT22;23307;51.136;14.942;2024-03-08T07:21:32;2.00;99.90
37446;DHT22;23307;51.136;14.942;2024-03-08T07:23:57;2.10;99.90
37446;DHT22;23307;51.136;14.942;2024-03-08T07:26:26;2.10;99.90
37446;DHT22;23307;51.136;14.942;2024-03-08T07:28:52;2.10;99.90
37446;DHT22;23307;51.136;14.942;2024-03-08T07:31:19;2.20;99.90
37446;DHT22;23307;51.136;14.942;2024-03-08T07:33:51;2.30;99.90
37446;DHT22;23307;51.136;14.942;2024-03-08T07:36:17;2.30;99.90
37446;DHT22;23307;51.136;14.942;2024-03-08T07:38:42;2.30;99.90
37446;DHT22;23307;51.136;14.942;2024-03-08T07:41:08;2.30;99.90
37446;DHT22;23307;51.136;14.942;2024-03-08T07:43:34;2.40;99.90
37446;DHT22;23307;51.136;14.942;2024-03-08T07:45:59;2.40;99.90
37446;DHT22;23307;51.136;14.942;2024-03-08T07:48:25;2.50;99.90
37446;DHT22;23307;51.136;14.942;2024-03-08T07:50:51;2.60;99.90
37446;DHT22;23307;51.136;14.942;2024-03-08T07:53:16;2.60;99.90
37446;DHT22;23307;51.136;14.942;2024-03-08T07:55:42;2.80;99.90
37446;DHT22;23307;51.136;14.942;2024-03-08T07:58:08;2.80;99.90
37446;DHT22;23307;51.136;14.942;2024-03-08T08:00:36;2.90;99.90
37446;DHT22;23307;51.136;14.942;2024-03-08T08:03:02;3.00;99.90
37446;DHT22;23307;51.136;14.942;2024-03-08T08:05:28;3.10;99.90
37446;DHT22;23307;51.136;14.942;2024-03-08T08:07:53;3.10;99.90
37446;DHT22;23307;51.136;14.942;2024-03-08T08:10:19;3.20;99.90
37446;DHT22;23307;51.136;14.942;2024-03-08T08:12:48;3.40;99.90
37446;DHT22;23307;51.136;14.942;2024-03-08T08:15:13;3.40;99.90
37446;DHT22;23307;51.136;14.942;2024-03-08T08:17:41;3.50;99.90
37446;DHT22;23307;51.136;14.942;2024-03-08T08:20:07;3.60;99.90
37446;DHT22;23307;51.136;14.942;2024-03-08T08:22:32;3.70;99.90
37446;DHT22;23307;51.136;14.942;2024-03-08T08:24:58;3.80;99.90
37446;DHT22;23307;51.136;14.942;2024-03-08T08:27:23;3.90;99.90
37446;DHT22;23307;51.136;14.942;2024-03-08T08:29:51;3.90;99.90
37446;DHT22;23307;51.136;14.942;2024-03-08T08:32:17;4.00;99.90
37446;DHT22;23307;51.136;14.942;2024-03-08T08:34:44;4.10;99.90
37446;DHT22;23307;51.136;14.942;2024-03-08T08:37:09;4.30;99.90
37446;DHT22;23307;51.136;14.942;2024-03-08T08:39:35;4.40;99.90
37446;DHT22;23307;51.136;14.942;2024-03-08T08:42:00;4.50;99.90
37446;DHT22;23307;51.136;14.942;2024-03-08T08:44:28;4.60;99.90
37446;DHT22;23307;51.136;14.942;2024-03-08T08:46:53;4.70;99.90
37446;DHT22;23307;51.136;14.942;2024-03-08T08:49:19;4.80;99.90
37446;DHT22;23307;51.136;14.942;2024-03-08T08:51:52;4.90;99.90
37446;DHT22;23307;51.136;14.942;2024-03-08T08:54:18;5.00;99.90
37446;DHT22;23307;51.136;14.942;2024-03-08T08:56:44;5.10;99.90
37446;DHT22;23307;51.136;14.942;2024-03-08T08:59:10;5.20;99.90
37446;DHT22;23307;51.136;14.942;2024-03-08T09:01:39;5.30;99.90
37446;DHT22;23307;51.136;14.942;2024-03-08T09:04:04;5.40;99.90
37446;DHT22;23307;51.136;14.942;2024-03-08T09:06:31;5.40;99.90
37446;DHT22;23307;51.136;14.942;2024-03-08T09:08:57;5.50;99.90
37446;DHT22;23307;51.136;14.942;2024-03-08T09:11:23;5.70;99.90
37446;DHT22;23307;51.136;14.942;2024-03-08T09:13:50;5.80;99.90
37446;DHT22;23307;51.136;14.942;2024-03-08T09:16:16;6.00;99.90
37446;DHT22;23307;51.136;14.942;2024-03-08T09:18:41;6.10;99.90
37446;DHT22;23307;51.136;14.942;2024-03-08T09:21:07;6.10;99.90
37446;DHT22;23307;51.136;14.942;2024-03-08T09:23:38;6.20;99.90
37446;DHT22;23307;51.136;14.942;2024-03-08T09:26:03;6.20;99.90
37446;DHT22;23307;51.136;14.942;2024-03-08T09:28:29;6.40;99.90
37446;DHT22;23307;51.136;14.942;2024-03-08T09:30:55;6.60;99.90
37446;DHT22;23307;51.136;14.942;2024-03-08T09:33:21;6.80;99.90
37446;DHT22;23307;51.136;14.942;2024-03-08T09:35:47;6.90;99.90
37446;DHT22;23307;51.136;14.942;2024-03-08T09:38:13;7.00;99.90
37446;DHT22;23307;51.136;14.942;2024-03-08T09:40:43;7.00;99.90
37446;DHT22;23307;51.136;14.942;2024-03-08T09:43:09;7.10;99.90
37446;DHT22;23307;51.136;14.942;2024-03-08T09:45:37;7.10;99.90
37446;DHT22;23307;51.136;14.942;2024-03-08T09:48:10;7.10;99.90
37446;DHT22;23307;51.136;14.942;2024-03-08T09:50:38;7.10;99.90
37446;DHT22;23307;51.136;14.942;2024-03-08T09:53:03;7.10;99.90
37446;DHT22;23307;51.136;14.942;2024-03-08T09:55:29;7.20;99.90
37446;DHT22;23307;51.136;14.942;2024-03-08T09:58:00;7.30;99.90
37446;DHT22;23307;51.136;14.942;2024-03-08T10:00:45;7.30;99.90
37446;DHT22;23307;51.136;14.942;2024-03-08T10:03:10;7.40;99.90
37446;DHT22;23307;51.136;14.942;2024-03-08T10:05:36;7.40;99.90
37446;DHT22;23307;51.136;14.942;2024-03-08T10:08:02;7.60;99.90
37446;DHT22;23307;51.136;14.942;2024-03-08T10:10:28;7.70;99.90
37446;DHT22;23307;51.136;14.942;2024-03-08T10:12:54;7.80;99.90
37446;DHT22;23307;51.136;14.942;2024-03-08T10:15:20;7.90;99.90
37446;DHT22;23307;51.136;14.942;2024-03-08T10:17:45;8.00;99.90
37446;DHT22;23307;51.136;14.942;2024-03-08T10:20:17;8.00;99.90
37446;DHT22;23307;51.136;14.942;2024-03-08T10:22:44;8.10;99.90
37446;DHT22;23307;51.136;14.942;2024-03-08T10:25:11;8.20;99.90
37446;DHT22;23307;51.136;14.942;2024-03-08T10:27:38;8.40;99.90
37446;DHT22;23307;51.136;14.942;2024-03-08T10:30:06;8.60;99.90
37446;DHT22;23307;51.136;14.942;2024-03-08T10:32:33;8.70;99.90
37446;DHT22;23307;51.136;14.942;2024-03-08T10:34:59;8.70;99.90
37446;DHT22;23307;51.136;14.942;2024-03-08T10:37:25;8.80;99.90
37446;DHT22;23307;51.136;14.942;2024-03-08T10:40:04;9.00;99.90
37446;DHT22;23307;51.136;14.942;2024-03-08T10:42:40;9.20;99.90
37446;DHT22;23307;51.136;14.942;2024-03-08T10:45:31;9.30;99.90
37446;DHT22;23307;51.136;14.942;2024-03-08T10:48:28;9.30;99.90
37446;DHT22;23307;51.136;14.942;2024-03-08T10:50:53;9.30;99.90
37446;DHT22;23307;51.136;14.942;2024-03-08T10:53:21;9.50;99.90
37446;DHT22;23307;51.136;14.942;2024-03-08T10:55:49;9.70;99.90
37446;DHT22;23307;51.136;14.942;2024-03-08T10:58:21;9.80;99.90
37446;DHT22;23307;51.136;14.942;2024-03-08T11:00:48;9.90;99.90
37446;DHT22;23307;51.136;14.942;2024-03-08T11:06:08;9.90;99.90
37446;DHT22;23307;51.136;14.942;2024-03-08T11:08:37;10.00;99.90
37446;DHT22;23307;51.136;14.942;2024-03-08T11:11:04;10.10;99.90
37446;DHT22;23307;51.136;14.942;2024-03-08T11:13:42;10.20;99.90
37446;DHT22;23307;51.136;14.942;2024-03-08T11:16:11;10.30;99.90
37446;DHT22;23307;51.136;14.942;2024-03-08T11:18:38;10.40;99.90
37446;DHT22;23307;51.136;14.942;2024-03-08T11:21:04;10.60;99.90
37446;DHT22;23307;51.136;14.942;2024-03-08T11:23:36;10.70;99.90
37446;DHT22;23307;51.136;14.942;2024-03-08T11:26:01;10.70;99.90
37446;DHT22;23307;51.136;14.942;2024-03-08T11:28:31;10.70;99.90
37446;DHT22;23307;51.136;14.942;2024-03-08T11:33:34;10.80;99.90
37446;DHT22;23307;51.136;14.942;2024-03-08T11:36:20;10.80;99.90
37446;DHT22;23307;51.136;14.942;2024-03-08T11:38:48;10.70;99.90
37446;DHT22;23307;51.136;14.942;2024-03-08T11:41:14;10.80;99.90
37446;DHT22;23307;51.136;14.942;2024-03-08T11:43:40;10.90;99.90
37446;DHT22;23307;51.136;14.942;2024-03-08T11:46:17;11.00;99.90
37446;DHT22;23307;51.136;14.942;2024-03-08T11:48:44;11.00;99.90
37446;DHT22;23307;51.136;14.942;2024-03-08T11:51:14;11.00;99.90
37446;DHT22;23307;51.136;14.942;2024-03-08T11:53:40;11.10;99.90
37446;DHT22;23307;51.136;14.942;2024-03-08T11:56:14;11.20;99.90
37446;DHT22;23307;51.136;14.942;2024-03-08T11:58:40;11.40;99.90
37446;DHT22;23307;51.136;14.942;2024-03-08T12:01:10;11.50;99.90
37446;DHT22;23307;51.136;14.942;2024-03-08T12:03:41;11.70;99.90
37446;DHT22;23307;51.136;14.942;2024-03-08T12:06:12;12.00;99.90
37446;DHT22;23307;51.136;14.942;2024-03-08T12:08:39;12.10;99.90
37446;DHT22;23307;51.136;14.942;2024-03-08T12:11:05;12.20;99.90
37446;DHT22;23307;51.136;14.942;2024-03-08T12:13:32;12.30;99.90
37446;DHT22;23307;51.136;14.942;2024-03-08T12:15:59;12.50;99.90
37446;DHT22;23307;51.136;14.942;2024-03-08T12:18:28;12.60;99.90
37446;DHT22;23307;51.136;14.942;2024-03-08T12:21:10;12.70;99.90
37446;DHT22;23307;51.136;14.942;2024-03-08T12:23:36;12.80;99.80
37446;DHT22;23307;51.136;14.942;2024-03-08T12:26:18;12.90;99.90
37446;DHT22;23307;51.136;14.942;2024-03-08T12:28:48;13.00;99.20
37446;DHT22;23307;51.136;14.942;2024-03-08T12:31:14;13.10;99.20
37446;DHT22;23307;51.136;14.942;2024-03-08T12:33:55;13.00;98.60
37446;DHT22;23307;51.136;14.942;2024-03-08T12:36:24;12.90;99.00
37446;DHT22;23307;51.136;14.942;2024-03-08T12:38:50;13.20;99.80
37446;DHT22;23307;51.136;14.942;2024-03-08T12:41:17;13.40;98.50
37446;DHT22;23307;51.136;14.942;2024-03-08T12:43:44;13.40;98.60
37446;DHT22;23307;51.136;14.942;2024-03-08T12:46:14;13.50;98.60
37446;DHT22;23307;51.136;14.942;2024-03-08T12:48:40;13.70;98.40
37446;DHT22;23307;51.136;14.942;2024-03-08T12:51:09;13.80;98.20
37446;DHT22;23307;51.136;14.942;2024-03-08T12:53:35;13.80;97.90
37446;DHT22;23307;51.136;14.942;2024-03-08T12:56:01;13.90;97.80
37446;DHT22;23307;51.136;14.942;2024-03-08T12:58:26;14.00;97.60
37446;DHT22;23307;51.136;14.942;2024-03-08T13:00:52;14.00;97.40
37446;DHT22;23307;51.136;14.942;2024-03-08T13:03:17;14.20;97.80
37446;DHT22;23307;51.136;14.942;2024-03-08T13:05:43;14.30;97.60
37446;DHT22;23307;51.136;14.942;2024-03-08T13:08:09;14.50;97.70
37446;DHT22;23307;51.136;14.942;2024-03-08T13:10:39;14.60;96.50
37446;DHT22;23307;51.136;14.942;2024-03-08T13:13:04;14.50;96.00
37446;DHT22;23307;51.136;14.942;2024-03-08T13:15:30;14.30;95.70
37446;DHT22;23307;51.136;14.942;2024-03-08T13:17:56;14.30;96.50
37446;DHT22;23307;51.136;14.942;2024-03-08T13:20:24;14.50;96.90
37446;DHT22;23307;51.136;14.942;2024-03-08T13:22:53;14.70;96.30
37446;DHT22;23307;51.136;14.942;2024-03-08T13:25:19;14.70;95.90
37446;DHT22;23307;51.136;14.942;2024-03-08T13:27:45;14.80;95.90
37446;DHT22;23307;51.136;14.942;2024-03-08T13:30:11;14.90;95.90
37446;DHT22;23307;51.136;14.942;2024-03-08T13:32:44;15.00;95.30
37446;DHT22;23307;51.136;14.942;2024-03-08T13:35:10;15.00;95.40
37446;DHT22;23307;51.136;14.942;2024-03-08T13:37:40;15.10;94.40
37446;DHT22;23307;51.136;14.942;2024-03-08T13:40:06;15.00;94.60
37446;DHT22;23307;51.136;14.942;2024-03-08T13:42:38;15.10;95.30
37446;DHT22;23307;51.136;14.942;2024-03-08T13:45:06;15.20;94.00
37446;DHT22;23307;51.136;14.942;2024-03-08T13:47:34;15.20;94.50
37446;DHT22;23307;51.136;14.942;2024-03-08T13:50:00;15.20;94.60
37446;DHT22;23307;51.136;14.942;2024-03-08T13:52:26;15.30;94.70
37446;DHT22;23307;51.136;14.942;2024-03-08T13:54:54;15.30;94.00
37446;DHT22;23307;51.136;14.942;2024-03-08T13:57:20;15.40;94.40
37446;DHT22;23307;51.136;14.942;2024-03-08T13:59:45;15.50;94.30
37446;DHT22;23307;51.136;14.942;2024-03-08T14:02:11;15.60;94.00
37446;DHT22;23307;51.136;14.942;2024-03-08T14:04:38;15.60;94.00
37446;DHT22;23307;51.136;14.942;2024-03-08T14:07:05;15.50;93.60
37446;DHT22;23307;51.136;14.942;2024-03-08T14:09:34;15.50;93.60
37446;DHT22;23307;51.136;14.942;2024-03-08T14:12:03;15.70;94.00
37446;DHT22;23307;51.136;14.942;2024-03-08T14:14:32;15.80;93.90
37446;DHT22;23307;51.136;14.942;2024-03-08T14:17:00;15.60;92.70
37446;DHT22;23307;51.136;14.942;2024-03-08T14:19:27;15.50;93.00
37446;DHT22;23307;51.136;14.942;2024-03-08T14:21:52;15.60;93.40
37446;DHT22;23307;51.136;14.942;2024-03-08T14:24:19;15.70;92.70
37446;DHT22;23307;51.136;14.942;2024-03-08T14:26:45;15.60;92.70
37446;DHT22;23307;51.136;14.942;2024-03-08T14:29:11;15.70;92.50
37446;DHT22;23307;51.136;14.942;2024-03-08T14:31:37;15.60;92.30
37446;DHT22;23307;51.136;14.942;2024-03-08T14:34:03;15.60;92.30
37446;DHT22;23307;51.136;14.942;2024-03-08T14:36:29;15.50;91.80
37446;DHT22;23307;51.136;14.942;2024-03-08T14:38:55;15.40;92.30
37446;DHT22;23307;51.136;14.942;2024-03-08T14:41:21;15.40;91.60
37446;DHT22;23307;51.136;14.942;2024-03-08T14:43:48;15.10;91.90
37446;DHT22;23307;51.136;14.942;2024-03-08T14:46:16;15.10;92.40
37446;DHT22;23307;51.136;14.942;2024-03-08T14:48:52;15.00;92.10
37446;DHT22;23307;51.136;14.942;2024-03-08T14:51:21;14.90;92.30
37446;DHT22;23307;51.136;14.942;2024-03-08T14:53:48;15.00;92.70
37446;DHT22;23307;51.136;14.942;2024-03-08T14:56:15;15.00;92.10
37446;DHT22;23307;51.136;14.942;2024-03-08T14:58:45;14.90;92.30
37446;DHT22;23307;51.136;14.942;2024-03-08T15:01:12;14.90;92.50
37446;DHT22;23307;51.136;14.942;2024-03-08T15:03:43;14.80;92.20
37446;DHT22;23307;51.136;14.942;2024-03-08T15:06:09;14.60;92.70
37446;DHT22;23307;51.136;14.942;2024-03-08T15:08:36;14.50;93.00
37446;DHT22;23307;51.136;14.942;2024-03-08T15:11:03;14.30;93.00
37446;DHT22;23307;51.136;14.942;2024-03-08T15:13:28;14.10;93.00
37446;DHT22;23307;51.136;14.942;2024-03-08T15:16:05;13.80;93.10
37446;DHT22;23307;51.136;14.942;2024-03-08T15:18:31;13.40;93.40
37446;DHT22;23307;51.136;14.942;2024-03-08T15:21:08;13.10;93.90
37446;DHT22;23307;51.136;14.942;2024-03-08T15:23:37;13.00;94.60
37446;DHT22;23307;51.136;14.942;2024-03-08T15:26:03;12.90;94.70
37446;DHT22;23307;51.136;14.942;2024-03-08T15:28:33;12.80;94.90
37446;DHT22;23307;51.136;14.942;2024-03-08T15:31:06;12.60;95.10
37446;DHT22;23307;51.136;14.942;2024-03-08T15:33:35;12.50;95.50
37446;DHT22;23307;51.136;14.942;2024-03-08T15:36:08;12.40;95.40